sensor_id;sensor_type;location;lat;lon;timestamp;temperature;humidity
37158;DHT22;23050;51.776;22.638;2022-08-14T00:01:14;18.40;99.90
37158;DHT22;23050;51.776;22.638;2022-08-14T00:03:41;18.40;99.90
37158;DHT22;23050;51.776;22.638;2022-08-14T00:06:07;18.40;99.90
37158;DHT22;23050;51.776;22.638;2022-08-14T00:08:33;18.40;99.90
37158;DHT22;23050;51.776;22.638;2022-08-14T00:10:58;18.50;99.90
37158;DHT22;23050;51.776;22.638;2022-08-14T00:13:26;18.50;99.90
37158;DHT22;23050;51.776;22.638;2022-08-14T00:15:55;18.50;99.90
37158;DHT22;23050;51.776;22.638;2022-08-14T00:18:23;18.50;99.90
37158;DHT22;23050;51.776;22.638;2022-08-14T00:20:50;18.50;99.90
37158;DHT22;23050;51.776;22.638;2022-08-14T00:23:17;18.50;99.90
37158;DHT22;23050;51.776;22.638;2022-08-14T00:25:46;18.60;99.90
37158;DHT22;23050;51.776;22.638;2022-08-14T00:28:13;18.60;99.90
37158;DHT22;23050;51.776;22.638;2022-08-14T00:30:40;18.50;99.90
37158;DHT22;23050;51.776;22.638;2022-08-14T00:33:06;18.60;99.90
37158;DHT22;23050;51.776;22.638;2022-08-14T00:35:32;18.60;99.90
37158;DHT22;23050;51.776;22.638;2022-08-14T00:37:57;18.60;99.90
37158;DHT22;23050;51.776;22.638;2022-08-14T00:40:24;18.50;99.90
37158;DHT22;23050;51.776;22.638;2022-08-14T00:42:50;18.60;99.90
37158;DHT22;23050;51.776;22.638;2022-08-14T00:45:17;18.50;99.90
37158;DHT22;23050;51.776;22.638;2022-08-14T00:47:45;18.50;99.90
37158;DHT22;23050;51.776;22.638;2022-08-14T00:50:14;18.50;99.90
37158;DHT22;23050;51.776;22.638;2022-08-14T00:52:42;18.50;99.90
37158;DHT22;23050;51.776;22.638;2022-08-14T00:55:10;18.50;99.90
37158;DHT22;23050;51.776;22.638;2022-08-14T00:57:36;18.50;99.90
37158;DHT22;23050;51.776;22.638;2022-08-14T01:00:11;18.50;99.90
37158;DHT22;23050;51.776;22.638;2022-08-14T01:02:42;18.50;99.90
37158;DHT22;23050;51.776;22.638;2022-08-14T01:05:09;18.50;99.90
37158;DHT22;23050;51.776;22.638;2022-08-14T01:07:50;18.50;99.90
37158;DHT22;23050;51.776;22.638;2022-08-14T01:10:16;18.40;99.90
37158;DHT22;23050;51.776;22.638;2022-08-14T01:12:42;18.40;99.90
37158;DHT22;23050;51.776;22.638;2022-08-14T01:15:09;18.40;99.90
37158;DHT22;23050;51.776;22.638;2022-08-14T01:17:35;18.40;99.90
37158;DHT22;23050;51.776;22.638;2022-08-14T01:20:20;18.40;99.90
37158;DHT22;23050;51.776;22.638;2022-08-14T01:23:09;18.40;99.90
37158;DHT22;23050;51.776;22.638;2022-08-14T01:25:37;18.40;99.90
37158;DHT22;23050;51.776;22.638;2022-08-14T01:28:03;18.50;99.90
37158;DHT22;23050;51.776;22.638;2022-08-14T01:30:30;18.50;99.90
37158;DHT22;23050;51.776;22.638;2022-08-14T01:32:57;18.50;99.90
37158;DHT22;23050;51.776;22.638;2022-08-14T01:35:23;18.60;99.90
37158;DHT22;23050;51.776;22.638;2022-08-14T01:37:52;18.60;99.90
37158;DHT22;23050;51.776;22.638;2022-08-14T01:40:21;18.60;99.90
37158;DHT22;23050;51.776;22.638;2022-08-14T01:42:47;18.60;99.90
37158;DHT22;23050;51.776;22.638;2022-08-14T01:45:13;18.60;99.90
37158;DHT22;23050;51.776;22.638;2022-08-14T01:47:39;18.60;99.90
37158;DHT22;23050;51.776;22.638;2022-08-14T01:50:07;18.60;99.90
37158;DHT22;23050;51.776;22.638;2022-08-14T01:52:34;18.60;99.90
37158;DHT22;23050;51.776;22.638;2022-08-14T01:55:02;18.60;99.90
37158;DHT22;23050;51.776;22.638;2022-08-14T01:57:31;18.60;99.90
37158;DHT22;23050;51.776;22.638;2022-08-14T01:59:57;18.60;99.90
37158;DHT22;23050;51.776;22.638;2022-08-14T02:02:23;18.60;99.90
37158;DHT22;23050;51.776;22.638;2022-08-14T02:04:48;18.60;99.90
37158;DHT22;23050;51.776;22.638;2022-08-14T02:07:14;18.60;99.90
37158;DHT22;23050;51.776;22.638;2022-08-14T02:09:41;18.60;99.90
37158;DHT22;23050;51.776;22.638;2022-08-14T02:12:07;18.70;99.90
37158;DHT22;23050;51.776;22.638;2022-08-14T02:14:34;18.70;99.90
37158;DHT22;23050;51.776;22.638;2022-08-14T02:17:01;18.70;99.90
37158;DHT22;23050;51.776;22.638;2022-08-14T02:19:28;18.60;99.90
37158;DHT22;23050;51.776;22.638;2022-08-14T02:21:57;18.70;99.90
37158;DHT22;23050;51.776;22.638;2022-08-14T02:24:25;18.70;99.90
37158;DHT22;23050;51.776;22.638;2022-08-14T02:26:53;18.70;99.90
37158;DHT22;23050;51.776;22.638;2022-08-14T02:29:22;18.70;99.90
37158;DHT22;23050;51.776;22.638;2022-08-14T02:31:53;18.70;99.90
37158;DHT22;23050;51.776;22.638;2022-08-14T02:34:21;18.70;99.90
37158;DHT22;23050;51.776;22.638;2022-08-14T02:36:50;18.70;99.90
37158;DHT22;23050;51.776;22.638;2022-08-14T02:39:17;18.70;99.90
37158;DHT22;23050;51.776;22.638;2022-08-14T02:41:43;18.70;99.90
37158;DHT22;23050;51.776;22.638;2022-08-14T02:44:10;18.70;99.90
37158;DHT22;23050;51.776;22.638;2022-08-14T02:46:39;18.70;99.90
37158;DHT22;23050;51.776;22.638;2022-08-14T02:49:09;18.70;99.90
37158;DHT22;23050;51.776;22.638;2022-08-14T02:51:35;18.80;99.90
37158;DHT22;23050;51.776;22.638;2022-08-14T02:54:01;18.70;99.90
37158;DHT22;23050;51.776;22.638;2022-08-14T02:56:27;18.70;99.90
37158;DHT22;23050;51.776;22.638;2022-08-14T02:58:55;18.70;99.90
37158;DHT22;23050;51.776;22.638;2022-08-14T03:01:22;18.70;99.90
37158;DHT22;23050;51.776;22.638;2022-08-14T03:03:49;18.80;99.90
37158;DHT22;23050;51.776;22.638;2022-08-14T03:06:17;18.70;99.90
37158;DHT22;23050;51.776;22.638;2022-08-14T03:08:45;18.80;99.90
37158;DHT22;23050;51.776;22.638;2022-08-14T03:11:13;18.80;99.90
37158;DHT22;23050;51.776;22.638;2022-08-14T03:13:44;18.80;99.90
37158;DHT22;23050;51.776;22.638;2022-08-14T03:16:11;18.70;99.90
37158;DHT22;23050;51.776;22.638;2022-08-14T03:18:43;18.70;99.90
37158;DHT22;23050;51.776;22.638;2022-08-14T03:21:18;18.70;99.90
37158;DHT22;23050;51.776;22.638;2022-08-14T03:23:46;18.70;99.90
37158;DHT22;23050;51.776;22.638;2022-08-14T03:26:15;18.70;99.90
37158;DHT22;23050;51.776;22.638;2022-08-14T03:28:46;18.70;99.90
37158;DHT22;23050;51.776;22.638;2022-08-14T03:31:13;18.70;99.90
37158;DHT22;23050;51.776;22.638;2022-08-14T03:33:40;18.70;99.90
37158;DHT22;23050;51.776;22.638;2022-08-14T03:36:12;18.70;99.90
37158;DHT22;23050;51.776;22.638;2022-08-14T03:38:40;18.70;99.90
37158;DHT22;23050;51.776;22.638;2022-08-14T03:41:10;18.70;99.90
37158;DHT22;23050;51.776;22.638;2022-08-14T03:43:46;18.70;99.90
37158;DHT22;23050;51.776;22.638;2022-08-14T03:46:13;18.70;99.90
37158;DHT22;23050;51.776;22.638;2022-08-14T03:48:40;18.70;99.90
37158;DHT22;23050;51.776;22.638;2022-08-14T03:51:07;18.70;99.90
37158;DHT22;23050;51.776;22.638;2022-08-14T03:53:37;18.70;99.90
37158;DHT22;23050;51.776;22.638;2022-08-14T03:56:05;18.80;99.90
37158;DHT22;23050;51.776;22.638;2022-08-14T03:58:32;18.80;99.90
37158;DHT22;23050;51.776;22.638;2022-08-14T04:00:59;18.80;99.90
37158;DHT22;23050;51.776;22.638;2022-08-14T04:03:25;18.80;99.90
37158;DHT22;23050;51.776;22.638;2022-08-14T04:05:52;18.80;99.90
37158;DHT22;23050;51.776;22.638;2022-08-14T04:08:18;18.80;99.90
37158;DHT22;23050;51.776;22.638;2022-08-14T04:10:45;18.80;99.90
37158;DHT22;23050;51.776;22.638;2022-08-14T04:13:12;18.80;99.90
37158;DHT22;23050;51.776;22.638;2022-08-14T04:15:39;18.80;99.90
37158;DHT22;23050;51.776;22.638;2022-08-14T04:18:05;18.80;99.90
37158;DHT22;23050;51.776;22.638;2022-08-14T04:20:37;18.80;99.90
37158;DHT22;23050;51.776;22.638;2022-08-14T04:23:08;18.80;99.90
37158;DHT22;23050;51.776;22.638;2022-08-14T04:25:34;18.80;99.90
37158;DHT22;23050;51.776;22.638;2022-08-14T04:28:04;18.90;99.90
37158;DHT22;23050;51.776;22.638;2022-08-14T04:30:30;18.90;99.90
37158;DHT22;23050;51.776;22.638;2022-08-14T04:32:56;18.90;99.90
37158;DHT22;23050;51.776;22.638;2022-08-14T04:35:22;19.00;99.90
37158;DHT22;23050;51.776;22.638;2022-08-14T04:37:48;19.00;99.90
37158;DHT22;23050;51.776;22.638;2022-08-14T04:40:32;19.00;99.90
37158;DHT22;23050;51.776;22.638;2022-08-14T04:43:17;19.00;99.90
37158;DHT22;23050;51.776;22.638;2022-08-14T04:46:02;19.00;99.90
37158;DHT22;23050;51.776;22.638;2022-08-14T04:48:28;19.10;99.90
37158;DHT22;23050;51.776;22.638;2022-08-14T04:50:54;19.10;99.90
37158;DHT22;23050;51.776;22.638;2022-08-14T04:53:27;19.20;99.90
37158;DHT22;23050;51.776;22.638;2022-08-14T04:55:53;19.20;99.90
37158;DHT22;23050;51.776;22.638;2022-08-14T04:58:28;19.20;99.90
37158;DHT22;23050;51.776;22.638;2022-08-14T05:00:56;19.30;99.90
37158;DHT22;23050;51.776;22.638;2022-08-14T05:03:26;19.20;99.90
37158;DHT22;23050;51.776;22.638;2022-08-14T05:05:57;19.30;99.90
37158;DHT22;23050;51.776;22.638;2022-08-14T05:08:23;19.40;99.90
37158;DHT22;23050;51.776;22.638;2022-08-14T05:10:54;19.40;99.90
37158;DHT22;23050;51.776;22.638;2022-08-14T05:13:22;19.50;99.90
37158;DHT22;23050;51.776;22.638;2022-08-14T05:15:49;19.60;99.90
37158;DHT22;23050;51.776;22.638;2022-08-14T05:18:27;19.70;99.90
37158;DHT22;23050;51.776;22.638;2022-08-14T05:20:54;19.80;99.90
37158;DHT22;23050;51.776;22.638;2022-08-14T05:23:23;19.80;99.90
37158;DHT22;23050;51.776;22.638;2022-08-14T05:25:51;19.80;99.90
37158;DHT22;23050;51.776;22.638;2022-08-14T05:28:24;19.80;99.90
37158;DHT22;23050;51.776;22.638;2022-08-14T05:30:53;19.90;99.90
37158;DHT22;23050;51.776;22.638;2022-08-14T05:33:20;19.90;99.90
37158;DHT22;23050;51.776;22.638;2022-08-14T05:35:50;19.90;99.90
37158;DHT22;23050;51.776;22.638;2022-08-14T05:38:17;19.90;99.90
37158;DHT22;23050;51.776;22.638;2022-08-14T05:40:43;19.90;99.90
37158;DHT22;23050;51.776;22.638;2022-08-14T05:43:09;20.00;99.90
37158;DHT22;23050;51.776;22.638;2022-08-14T05:45:36;20.00;99.90
37158;DHT22;23050;51.776;22.638;2022-08-14T05:48:04;20.00;99.90
37158;DHT22;23050;51.776;22.638;2022-08-14T05:50:30;20.10;99.90
37158;DHT22;23050;51.776;22.638;2022-08-14T05:52:56;20.10;99.90
37158;DHT22;23050;51.776;22.638;2022-08-14T05:55:23;20.00;99.90
37158;DHT22;23050;51.776;22.638;2022-08-14T05:57:54;20.00;99.90
37158;DHT22;23050;51.776;22.638;2022-08-14T06:00:22;19.90;99.90
37158;DHT22;23050;51.776;22.638;2022-08-14T06:02:48;20.00;99.90
37158;DHT22;23050;51.776;22.638;2022-08-14T06:05:14;19.90;99.90
37158;DHT22;23050;51.776;22.638;2022-08-14T06:07:40;20.00;99.90
37158;DHT22;23050;51.776;22.638;2022-08-14T06:10:07;20.00;99.90
37158;DHT22;23050;51.776;22.638;2022-08-14T06:12:34;20.10;99.90
37158;DHT22;23050;51.776;22.638;2022-08-14T06:15:00;20.10;99.90
37158;DHT22;23050;51.776;22.638;2022-08-14T06:17:26;20.30;99.90
37158;DHT22;23050;51.776;22.638;2022-08-14T06:19:52;20.30;99.90
37158;DHT22;23050;51.776;22.638;2022-08-14T06:22:18;20.30;99.90
37158;DHT22;23050;51.776;22.638;2022-08-14T06:24:43;20.40;99.90
37158;DHT22;23050;51.776;22.638;2022-08-14T06:27:09;20.50;99.90
37158;DHT22;23050;51.776;22.638;2022-08-14T06:29:36;20.60;99.90
37158;DHT22;23050;51.776;22.638;2022-08-14T06:32:02;20.70;99.90
37158;DHT22;23050;51.776;22.638;2022-08-14T06:34:28;20.80;99.90
37158;DHT22;23050;51.776;22.638;2022-08-14T06:36:54;20.80;99.90
37158;DHT22;23050;51.776;22.638;2022-08-14T06:39:22;20.90;99.90
37158;DHT22;23050;51.776;22.638;2022-08-14T06:41:47;21.00;99.90
37158;DHT22;23050;51.776;22.638;2022-08-14T06:44:13;20.90;99.90
37158;DHT22;23050;51.776;22.638;2022-08-14T06:46:39;20.90;99.90
37158;DHT22;23050;51.776;22.638;2022-08-14T06:49:05;21.00;99.90
37158;DHT22;23050;51.776;22.638;2022-08-14T06:51:31;20.90;99.90
37158;DHT22;23050;51.776;22.638;2022-08-14T06:53:57;20.90;99.90
37158;DHT22;23050;51.776;22.638;2022-08-14T06:56:23;20.80;99.90
37158;DHT22;23050;51.776;22.638;2022-08-14T06:58:49;20.70;99.90
37158;DHT22;23050;51.776;22.638;2022-08-14T07:01:15;20.70;99.90
37158;DHT22;23050;51.776;22.638;2022-08-14T07:03:59;20.70;99.90
37158;DHT22;23050;51.776;22.638;2022-08-14T07:06:43;20.70;99.90
37158;DHT22;23050;51.776;22.638;2022-08-14T07:09:09;20.70;99.90
37158;DHT22;23050;51.776;22.638;2022-08-14T07:11:36;20.70;99.90
37158;DHT22;23050;51.776;22.638;2022-08-14T07:14:02;20.70;99.90
37158;DHT22;23050;51.776;22.638;2022-08-14T07:16:27;20.70;99.90
37158;DHT22;23050;51.776;22.638;2022-08-14T07:18:53;20.60;99.90
37158;DHT22;23050;51.776;22.638;2022-08-14T07:21:19;20.70;99.90
37158;DHT22;23050;51.776;22.638;2022-08-14T07:23:44;20.70;99.90
37158;DHT22;23050;51.776;22.638;2022-08-14T07:26:10;20.80;99.90
37158;DHT22;23050;51.776;22.638;2022-08-14T07:28:39;20.80;99.90
37158;DHT22;23050;51.776;22.638;2022-08-14T07:31:07;20.90;99.90
37158;DHT22;23050;51.776;22.638;2022-08-14T07:33:42;20.90;99.90
37158;DHT22;23050;51.776;22.638;2022-08-14T07:36:10;20.80;99.90
37158;DHT22;23050;51.776;22.638;2022-08-14T07:38:39;20.90;99.90
37158;DHT22;23050;51.776;22.638;2022-08-14T07:41:09;21.00;99.90
37158;DHT22;23050;51.776;22.638;2022-08-14T07:43:36;21.00;99.90
37158;DHT22;23050;51.776;22.638;2022-08-14T07:46:03;21.10;99.90
37158;DHT22;23050;51.776;22.638;2022-08-14T07:48:29;21.20;99.90
37158;DHT22;23050;51.776;22.638;2022-08-14T07:50:55;21.40;99.90
37158;DHT22;23050;51.776;22.638;2022-08-14T07:53:21;21.50;99.90
37158;DHT22;23050;51.776;22.638;2022-08-14T07:55:47;21.60;99.90
37158;DHT22;23050;51.776;22.638;2022-08-14T07:58:14;21.70;99.90
37158;DHT22;23050;51.776;22.638;2022-08-14T08:00:40;21.80;99.90
37158;DHT22;23050;51.776;22.638;2022-08-14T08:03:07;21.90;99.90
37158;DHT22;23050;51.776;22.638;2022-08-14T08:05:37;22.10;99.90
37158;DHT22;23050;51.776;22.638;2022-08-14T08:08:05;22.20;99.90
37158;DHT22;23050;51.776;22.638;2022-08-14T08:10:31;22.40;99.90
37158;DHT22;23050;51.776;22.638;2022-08-14T08:13:03;22.40;99.90
37158;DHT22;23050;51.776;22.638;2022-08-14T08:15:35;22.30;99.90
37158;DHT22;23050;51.776;22.638;2022-08-14T08:18:02;22.40;99.90
37158;DHT22;23050;51.776;22.638;2022-08-14T08:20:31;22.40;99.90
37158;DHT22;23050;51.776;22.638;2022-08-14T08:22:57;22.50;99.90
37158;DHT22;23050;51.776;22.638;2022-08-14T08:25:29;22.50;99.90
37158;DHT22;23050;51.776;22.638;2022-08-14T08:28:07;22.50;99.90
37158;DHT22;23050;51.776;22.638;2022-08-14T08:30:37;22.60;99.90
37158;DHT22;23050;51.776;22.638;2022-08-14T08:33:04;22.50;99.90
37158;DHT22;23050;51.776;22.638;2022-08-14T08:35:33;22.50;99.90
37158;DHT22;23050;51.776;22.638;2022-08-14T08:38:05;22.60;99.90
37158;DHT22;23050;51.776;22.638;2022-08-14T08:40:34;22.70;99.90
37158;DHT22;23050;51.776;22.638;2022-08-14T08:43:08;22.70;99.90
37158;DHT22;23050;51.776;22.638;2022-08-14T08:45:35;22.60;99.90
37158;DHT22;23050;51.776;22.638;2022-08-14T08:48:02;22.50;99.90
37158;DHT22;23050;51.776;22.638;2022-08-14T08:50:37;22.40;99.90
37158;DHT22;23050;51.776;22.638;2022-08-14T08:53:07;22.30;99.90
37158;DHT22;23050;51.776;22.638;2022-08-14T08:55:42;22.30;99.90
37158;DHT22;23050;51.776;22.638;2022-08-14T08:58:14;22.30;99.90
37158;DHT22;23050;51.776;22.638;2022-08-14T09:00:41;22.30;99.90
37158;DHT22;23050;51.776;22.638;2022-08-14T09:03:13;22.40;99.90
37158;DHT22;23050;51.776;22.638;2022-08-14T09:06:09;22.50;99.90
37158;DHT22;23050;51.776;22.638;2022-08-14T09:08:34;22.70;99.90
37158;DHT22;23050;51.776;22.638;2022-08-14T09:11:04;23.00;99.90
37158;DHT22;23050;51.776;22.638;2022-08-14T09:13:31;23.30;99.90
37158;DHT22;23050;51.776;22.638;2022-08-14T09:15:57;23.70;99.90
37158;DHT22;23050;51.776;22.638;2022-08-14T09:18:25;23.60;99.90
37158;DHT22;23050;51.776;22.638;2022-08-14T09:20:53;23.60;99.90
37158;DHT22;23050;51.776;22.638;2022-08-14T09:23:19;23.50;99.90
37158;DHT22;23050;51.776;22.638;2022-08-14T09:25:47;23.70;99.90
37158;DHT22;23050;51.776;22.638;2022-08-14T09:28:15;24.00;99.90
37158;DHT22;23050;51.776;22.638;2022-08-14T09:30:45;24.00;99.90
37158;DHT22;23050;51.776;22.638;2022-08-14T09:47:16;23.90;99.90
37158;DHT22;23050;51.776;22.638;2022-08-14T09:49:42;24.00;99.90
37158;DHT22;23050;51.776;22.638;2022-08-14T09:52:10;24.10;99.90
37158;DHT22;23050;51.776;22.638;2022-08-14T09:54:43;24.10;99.90
37158;DHT22;23050;51.776;22.638;2022-08-14T09:57:11;24.20;99.90
37158;DHT22;23050;51.776;22.638;2022-08-14T09:59:39;24.60;99.90
37158;DHT22;23050;51.776;22.638;2022-08-14T10:02:26;24.90;99.90
37158;DHT22;23050;51.776;22.638;2022-08-14T10:07:30;25.70;99.90
37158;DHT22;23050;51.776;22.638;2022-08-14T10:09:56;26.60;99.90
37158;DHT22;23050;51.776;22.638;2022-08-14T10:12:21;26.60;99.90
37158;DHT22;23050;51.776;22.638;2022-08-14T10:14:47;26.30;99.90
37158;DHT22;23050;51.776;22.638;2022-08-14T10:17:21;26.40;99.90
37158;DHT22;23050;51.776;22.638;2022-08-14T10:19:51;26.70;99.90
37158;DHT22;23050;51.776;22.638;2022-08-14T10:22:24;26.90;99.90
37158;DHT22;23050;51.776;22.638;2022-08-14T10:24:50;26.80;99.90
37158;DHT22;23050;51.776;22.638;2022-08-14T10:27:19;27.00;99.90
37158;DHT22;23050;51.776;22.638;2022-08-14T10:29:52;26.80;99.90
37158;DHT22;23050;51.776;22.638;2022-08-14T10:32:19;26.90;99.90
37158;DHT22;23050;51.776;22.638;2022-08-14T10:34:48;26.80;99.90
37158;DHT22;23050;51.776;22.638;2022-08-14T10:37:15;27.10;99.90
37158;DHT22;23050;51.776;22.638;2022-08-14T10:39:56;27.30;99.90
37158;DHT22;23050;51.776;22.638;2022-08-14T10:42:22;27.50;99.90
37158;DHT22;23050;51.776;22.638;2022-08-14T10:44:59;27.40;99.90
37158;DHT22;23050;51.776;22.638;2022-08-14T10:47:34;27.30;99.90
37158;DHT22;23050;51.776;22.638;2022-08-14T10:50:01;27.20;99.90
37158;DHT22;23050;51.776;22.638;2022-08-14T10:52:29;27.30;99.90
37158;DHT22;23050;51.776;22.638;2022-08-14T10:57:52;27.40;99.90
37158;DHT22;23050;51.776;22.638;2022-08-14T11:00:23;27.10;99.90
37158;DHT22;23050;51.776;22.638;2022-08-14T11:03:00;27.10;99.90
37158;DHT22;23050;51.776;22.638;2022-08-14T11:05:39;27.10;99.90
37158;DHT22;23050;51.776;22.638;2022-08-14T11:08:07;27.20;99.90
37158;DHT22;23050;51.776;22.638;2022-08-14T11:10:43;27.20;99.90
37158;DHT22;23050;51.776;22.638;2022-08-14T11:13:18;27.30;99.90
37158;DHT22;23050;51.776;22.638;2022-08-14T11:15:46;27.40;99.90
37158;DHT22;23050;51.776;22.638;2022-08-14T11:18:13;27.80;99.90
37158;DHT22;23050;51.776;22.638;2022-08-14T11:20:46;27.90;99.90
37158;DHT22;23050;51.776;22.638;2022-08-14T11:23:13;27.60;99.90
37158;DHT22;23050;51.776;22.638;2022-08-14T11:25:43;27.30;99.90
37158;DHT22;23050;51.776;22.638;2022-08-14T11:28:11;27.40;99.90
37158;DHT22;23050;51.776;22.638;2022-08-14T11:30:41;27.30;99.90
37158;DHT22;23050;51.776;22.638;2022-08-14T11:33:07;27.30;99.90
37158;DHT22;23050;51.776;22.638;2022-08-14T11:35:33;27.30;99.90
37158;DHT22;23050;51.776;22.638;2022-08-14T11:38:04;27.30;99.90
37158;DHT22;23050;51.776;22.638;2022-08-14T11:40:33;27.30;99.90
37158;DHT22;23050;51.776;22.638;2022-08-14T11:43:00;27.40;99.90
37158;DHT22;23050;51.776;22.638;2022-08-14T11:45:28;27.70;99.90
37158;DHT22;23050;51.776;22.638;2022-08-14T11:48:17;28.00;99.90
37158;DHT22;23050;51.776;22.638;2022-08-14T11:50:45;28.40;99.90
37158;DHT22;23050;51.776;22.638;2022-08-14T11:53:28;28.70;99.90
37158;DHT22;23050;51.776;22.638;2022-08-14T11:56:01;29.40;99.90
37158;DHT22;23050;51.776;22.638;2022-08-14T11:58:33;30.00;99.90
37158;DHT22;23050;51.776;22.638;2022-08-14T12:01:01;30.30;99.90
37158;DHT22;23050;51.776;22.638;2022-08-14T12:03:39;30.50;99.90
37158;DHT22;23050;51.776;22.638;2022-08-14T12:06:07;30.80;97.60
37158;DHT22;23050;51.776;22.638;2022-08-14T12:08:35;30.70;96.80
37158;DHT22;23050;51.776;22.638;2022-08-14T12:11:02;30.30;97.60
37158;DHT22;23050;51.776;22.638;2022-08-14T12:13:29;30.20;99.90
37158;DHT22;23050;51.776;22.638;2022-08-14T12:16:01;30.20;98.40
37158;DHT22;23050;51.776;22.638;2022-08-14T12:18:28;30.10;96.50
37158;DHT22;23050;51.776;22.638;2022-08-14T12:20:53;29.70;97.80
37158;DHT22;23050;51.776;22.638;2022-08-14T12:23:21;29.90;97.80
37158;DHT22;23050;51.776;22.638;2022-08-14T12:25:47;29.40;98.90
37158;DHT22;23050;51.776;22.638;2022-08-14T12:28:13;29.30;99.90
37158;DHT22;23050;51.776;22.638;2022-08-14T12:30:42;29.50;98.00
37158;DHT22;23050;51.776;22.638;2022-08-14T12:33:28;29.60;98.10
37158;DHT22;23050;51.776;22.638;2022-08-14T12:35:57;30.00;98.70
37158;DHT22;23050;51.776;22.638;2022-08-14T12:41:07;30.10;94.20
37158;DHT22;23050;51.776;22.638;2022-08-14T12:43:46;29.70;94.90
37158;DHT22;23050;51.776;22.638;2022-08-14T12:46:40;29.40;97.90
37158;DHT22;23050;51.776;22.638;2022-08-14T12:49:15;29.40;99.90
37158;DHT22;23050;51.776;22.638;2022-08-14T12:51:42;29.80;99.90
37158;DHT22;23050;51.776;22.638;2022-08-14T12:56:39;30.50;96.50
37158;DHT22;23050;51.776;22.638;2022-08-14T12:59:04;30.30;93.30
37158;DHT22;23050;51.776;22.638;2022-08-14T13:01:32;30.10;93.70
37158;DHT22;23050;51.776;22.638;2022-08-14T13:04:13;30.40;92.70
37158;DHT22;23050;51.776;22.638;2022-08-14T13:06:40;30.80;90.00
37158;DHT22;23050;51.776;22.638;2022-08-14T13:09:11;31.10;91.30
37158;DHT22;23050;51.776;22.638;2022-08-14T13:11:43;31.40;88.70
37158;DHT22;23050;51.776;22.638;2022-08-14T13:14:13;31.30;82.20
37158;DHT22;23050;51.776;22.638;2022-08-14T13:16:41;31.30;78.90
37158;DHT22;23050;51.776;22.638;2022-08-14T13:19:12;31.80;75.90
37158;DHT22;23050;51.776;22.638;2022-08-14T13:21:41;31.80;68.30
37158;DHT22;23050;51.776;22.638;2022-08-14T13:24:07;31.40;66.50
37158;DHT22;23050;51.776;22.638;2022-08-14T13:26:49;31.10;72.80
37158;DHT22;23050;51.776;22.638;2022-08-14T13:29:27;30.90;79.80
37158;DHT22;23050;51.776;22.638;2022-08-14T13:31:55;31.30;77.70
37158;DHT22;23050;51.776;22.638;2022-08-14T13:34:27;31.60;64.40
37158;DHT22;23050;51.776;22.638;2022-08-14T13:36:54;31.40;63.00
37158;DHT22;23050;51.776;22.638;2022-08-14T13:39:22;31.40;66.20
37158;DHT22;23050;51.776;22.638;2022-08-14T13:41:48;31.30;67.90
37158;DHT22;23050;51.776;22.638;2022-08-14T13:44:15;31.50;54.00
37158;DHT22;23050;51.776;22.638;2022-08-14T13:46:41;31.30;53.30
37158;DHT22;23050;51.776;22.638;2022-08-14T13:49:09;31.10;57.60
37158;DHT22;23050;51.776;22.638;2022-08-14T13:51:38;31.00;58.30
37158;DHT22;23050;51.776;22.638;2022-08-14T13:54:04;30.90;61.80
37158;DHT22;23050;51.776;22.638;2022-08-14T13:56:37;31.10;64.70
37158;DHT22;23050;51.776;22.638;2022-08-14T13:59:03;31.00;56.90
37158;DHT22;23050;51.776;22.638;2022-08-14T14:01:30;30.80;62.80
37158;DHT22;23050;51.776;22.638;2022-08-14T14:03:58;30.70;60.70
37158;DHT22;23050;51.776;22.638;2022-08-14T14:06:25;30.80;52.20
37158;DHT22;23050;51.776;22.638;2022-08-14T14:08:54;30.90;46.50
37158;DHT22;23050;51.776;22.638;2022-08-14T14:11:20;31.30;43.10
37158;DHT22;23050;51.776;22.638;2022-08-14T14:13:51;31.60;50.20
37158;DHT22;23050;51.776;22.638;2022-08-14T14:16:17;31.50;36.60
37158;DHT22;23050;51.776;22.638;2022-08-14T14:18:46;31.10;39.30
37158;DHT22;23050;51.776;22.638;2022-08-14T14:21:23;31.10;53.50
37158;DHT22;23050;51.776;22.638;2022-08-14T14:23:51;31.00;47.50
37158;DHT22;23050;51.776;22.638;2022-08-14T14:26:18;30.70;47.90
37158;DHT22;23050;51.776;22.638;2022-08-14T14:28:50;31.10;62.30
37158;DHT22;23050;51.776;22.638;2022-08-14T14:31:25;31.50;49.90
37158;DHT22;23050;51.776;22.638;2022-08-14T14:34:02;32.00;51.30
37158;DHT22;23050;51.776;22.638;2022-08-14T14:36:30;32.30;40.40
37158;DHT22;23050;51.776;22.638;2022-08-14T14:39:04;31.50;40.90
37158;DHT22;23050;51.776;22.638;2022-08-14T14:41:37;30.60;51.10
37158;DHT22;23050;51.776;22.638;2022-08-14T14:44:04;29.50;57.00
37158;DHT22;23050;51.776;22.638;2022-08-14T14:46:34;28.10;99.90
37158;DHT22;23050;51.776;22.638;2022-08-14T14:49:02;25.70;99.90
37158;DHT22;23050;51.776;22.638;2022-08-14T14:51:28;23.80;99.90
37158;DHT22;23050;51.776;22.638;2022-08-14T14:53:55;22.90;99.90
37158;DHT22;23050;51.776;22.638;2022-08-14T14:56:22;22.20;99.90
37158;DHT22;23050;51.776;22.638;2022-08-14T14:58:50;21.60;99.90
37158;DHT22;23050;51.776;22.638;2022-08-14T15:01:16;21.30;99.90
37158;DHT22;23050;51.776;22.638;2022-08-14T15:03:48;21.20;99.90
37158;DHT22;23050;51.776;22.638;2022-08-14T15:06:19;21.10;99.90
37158;DHT22;23050;51.776;22.638;2022-08-14T15:08:45;21.10;99.90
37158;DHT22;23050;51.776;22.638;2022-08-14T15:11:11;21.00;99.90
37158;DHT22;23050;51.776;22.638;2022-08-14T15:13:36;21.00;99.90
37158;DHT22;23050;51.776;22.638;2022-08-14T15:16:03;21.10;99.90
37158;DHT22;23050;51.776;22.638;2022-08-14T15:18:30;21.20;99.90
37158;DHT22;23050;51.776;22.638;2022-08-14T15:20:57;21.20;99.90
37158;DHT22;23050;51.776;22.638;2022-08-14T15:23:25;21.30;99.90
37158;DHT22;23050;51.776;22.638;2022-08-14T15:25:51;21.40;99.90
37158;DHT22;23050;51.776;22.638;2022-08-14T15:28:17;21.40;99.90
37158;DHT22;23050;51.776;22.638;2022-08-14T15:30:45;21.40;99.90
37158;DHT22;23050;51.776;22.638;2022-08-14T15:33:12;21.50;99.90
37158;DHT22;23050;51.776;22.638;2022-08-14T15:35:38;21.60;99.90
37158;DHT22;23050;51.776;22.638;2022-08-14T15:38:04;21.80;99.90
37158;DHT22;23050;51.776;22.638;2022-08-14T15:40:36;22.00;99.90
37158;DHT22;23050;51.776;22.638;2022-08-14T15:43:04;22.20;99.90
37158;DHT22;23050;51.776;22.638;2022-08-14T15:45:30;22.30;99.90
37158;DHT22;23050;51.776;22.638;2022-08-14T15:47:56;22.40;99.90
37158;DHT22;23050;51.776;22.638;2022-08-14T15:50:22;22.50;99.90